This is the latest recevied weather packets stored in our database for station/object KO6HRZ. If no packets are shown the sender has not sent any weather packets the latest 10 day(s).
| Time | Temp. | Humidity | Pressure | Rain* | Wind** | Luminosity | Snow |
|---|---|---|---|---|---|---|---|
| 1777759626 | 24.44° C | 55% | 1012 hPa | 0 mm | - | 715 W/m² | - |
| 1777759026 | 23.33° C | 58% | 1012.2 hPa | 0 mm | - | 644 W/m² | - |
| 1777758426 | 23.89° C | 58% | 1012.2 hPa | 0 mm | - | 712 W/m² | - |
| 1777757826 | 23.33° C | 59% | 1012.4 hPa | 0 mm | - | 773 W/m² | - |
| 1777757222 | 22.78° C | 61% | 1012.2 hPa | 0 mm | - | 799 W/m² | - |
| 1777756621 | 22.78° C | 61% | 1012.5 hPa | 0 mm | - | 489 W/m² | - |
| 1777756022 | 22.78° C | 60% | 1012.7 hPa | 0 mm | - | 756 W/m² | - |
| 1777755422 | 22.22° C | 62% | 1012.9 hPa | 0 mm | - | 638 W/m² | - |
| 1777754821 | 22.22° C | 61% | 1012.8 hPa | 0 mm | - | 824 W/m² | - |
| 1777754216 | 22.78° C | 62% | 1012.9 hPa | 0 mm | - | 820 W/m² | - |
| 1777753614 | 22.22° C | 61% | 1013 hPa | 0 mm | - | 768 W/m² | - |
| 1777753009 | 22.22° C | 62% | 1013.2 hPa | 0 mm | - | 868 W/m² | - |
| 1777752408 | 22.22° C | 64% | 1013.1 hPa | 0 mm | - | 912 W/m² | - |
| 1777751803 | 21.67° C | 64% | 1013.2 hPa | 0 mm | - | 816 W/m² | - |
| 1777751201 | 20.56° C | 67% | 1013.3 hPa | 0 mm | - | 884 W/m² | - |
| 1777750601 | 20° C | 71% | 1013.5 hPa | 0 mm | - | 977 W/m² | - |
| 1777749999 | 18.89° C | 72% | 1013.4 hPa | 0 mm | - | 385 W/m² | - |
| 1777749393 | 19.44° C | 71% | 1013.5 hPa | 0 mm | - | 445 W/m² | - |
| 1777748788 | 18.89° C | 72% | 1013.6 hPa | 0 mm | - | 353 W/m² | - |
| 1777748186 | 17.78° C | 75% | 1013.6 hPa | 0 mm | - | 354 W/m² | - |
| 1777747585 | 17.22° C | 76% | 1013.6 hPa | 0 mm | - | 424 W/m² | - |
| 1777746983 | 17.22° C | 77% | 1013.9 hPa | 0 mm | - | 493 W/m² | - |
| 1777746381 | 16.67° C | 79% | 1013.8 hPa | 0 mm | - | 339 W/m² | - |
| 1777745780 | 16.11° C | 80% | 1013.8 hPa | 0 mm | - | 243 W/m² | - |
| 1777745176 | 16.11° C | 79% | 1013.6 hPa | 0 mm | - | 194 W/m² | - |
* Rain latest hour (hover to see other rain measurements)
** Current wind speed in m/s (hover to see current wind gust speed)